Home > Products > Valid Products > TAF

000
FTUS41 KAKQ 192300 CCA
TAFORF
TAF COR
KORF 192355Z 2000/2024 09006KT P6SM SKC
     FM201000 06009KT P6SM SCT100
     FM201600 08008KT P6SM SCT030 BKN050=



000
FTUS41 KAKQ 192300
TAFECG
TAF
KECG 192340Z 2000/2024 06009KT P6SM SCT250
     FM200600 05005KT P6SM SKC
     FM201200 06008KT P6SM SCT020 BKN050
     FM201500 05010KT P6SM BKN050
     FM201900 07008KT P6SM BKN050=



000
FTUS41 KAKQ 192300
TAFRIC
TAF
KRIC 192340Z 2000/2024 11004KT P6SM SCT060 BKN100
     FM200600 VRB03KT P6SM SKC
     FM201000 09003KT 4SM BR SKC
     FM201300 08004KT P6SM SKC
     FM201600 10007KT P6SM SCT030=



000
FTUS41 KAKQ 192300
TAFORF
TAF
KORF 192340Z 2000/2024 09008KT P6SM SCT080
     FM200400 07005KT P6SM SKC
     FM201000 06009KT P6SM SCT100
     FM201600 08008KT P6SM SCT030=



000
FTUS41 KAKQ 192300
TAFPHF
TAF
KPHF 192340Z 2000/2024 09004KT P6SM SCT100
     FM201600 07008KT P6SM SCT030 BKN080=



000
FTUS41 KAKQ 192300
TAFSBY
TAF
KSBY 192340Z 2000/2024 09004KT P6SM SKC
     FM200400 00000KT P6SM SKC
     FM201000 10003KT 4SM BR SCT015
     FM201300 10005KT P6SM SCT100
     FM201600 12008KT P6SM SCT030 BKN080=



000
FTUS41 KAKQ 192000 AAA
TAFSBY
TAF AMD
KSBY 192047Z 1921/2018 08010G15KT P6SM SCT035 BKN080
      TEMPO 1921/1923 -RA BKN030 OVC050
     FM192300 10004KT P6SM SCT030 BKN070
     FM200400 09004KT 3SM BR FEW015 BKN100
     FM201000 10003KT 5SM BR BKN015=



000
FTUS41 KAKQ 191700 RRA
TAFECG
TAF
KECG 191741Z 1918/2018 07009KT P6SM SCT035
     FM200600 06005KT P6SM FEW020
     FM201000 05007KT P6SM BKN020=



000
FTUS41 KAKQ 191700 RRA
TAFPHF
TAF
KPHF 191741Z 1918/2018 09011KT P6SM SCT050 BKN080
     FM192100 08009KT P6SM SCT040 SCT100 BKN250
     FM201200 07006KT P6SM FEW015 SCT040 SCT250=



000
FTUS41 KAKQ 191700 RRA
TAFRIC
TAF
KRIC 191741Z 1918/2018 08005KT P6SM SCT035 BKN080
     FM200000 11004KT P6SM SCT040 BKN120
     FM201100 09003KT 4SM BR SCT020 SCT120
     FM201400 07005KT P6SM SCT025 SCT120=



000
FTUS41 KAKQ 191700 RRA
TAFORF
TAF
KORF 191741Z 1918/2018 06010G15KT P6SM SCT030 BKN080
     FM192100 08009KT P6SM SCT040 SCT100 BKN250
     FM201200 07005KT P6SM FEW015 SCT040 SCT250=



000
FTUS41 KAKQ 191700 RRA
TAFSBY
TAF
KSBY 191741Z 1918/2018 06010G15KT P6SM SCT020 BKN035 BKN080
      TEMPO 1920/1923 -RA BKN020
     FM192300 10004KT P6SM SCT030 BKN070
     FM200400 09004KT 3SM BR FEW015 BKN100
     FM201000 10003KT 5SM BR BKN015=



000
FTUS41 KAKQ 191100
TAFORF
TAF
KORF 191120Z 1912/2012 00000KT P6SM BKN070
     FM191300 07010KT P6SM SCT050 BKN250=



000
FTUS41 KAKQ 191100
TAFECG
TAF
KECG 191120Z 1912/2012 01003KT P6SM SCT050
     FM191400 08010KT P6SM SCT050 BKN250=



000
FTUS41 KAKQ 191100
TAFSBY
TAF
KSBY 191120Z 1912/2012 00000KT P6SM SCT050
     FM191400 06008KT P6SM SCT050 BKN100
     FM192100 10004KT P6SM SCT100=



000
FTUS41 KAKQ 191100
TAFPHF
TAF
KPHF 191120Z 1912/2012 00000KT P6SM BKN070
     FM191300 07009KT P6SM SCT050 BKN250=



000
FTUS41 KAKQ 191100
TAFRIC
TAF
KRIC 191120Z 1912/2012 00000KT P6SM BKN060
      TEMPO 1912/1914 -RA BKN040
     FM191400 05006KT P6SM BKN060
     FM200000 11004KT P6SM SCT100=



000
FTUS41 KAKQ 190500
TAFORF
TAF
KORF 190520Z 1906/2006 00000KT P6SM BKN070
     FM191300 07010KT P6SM SCT050 BKN250=



000
FTUS41 KAKQ 190500
TAFSBY
TAF
KSBY 190520Z 1906/2006 00000KT P6SM BKN070
     FM191300 06008KT P6SM SCT050 BKN100
     FM192100 10004KT P6SM SCT100=



000
FTUS41 KAKQ 190500
TAFECG
TAF
KECG 190520Z 1906/2006 05003KT P6SM SCT050
     FM191400 08010KT P6SM SCT050 BKN250=



000
FTUS41 KAKQ 190500
TAFPHF
TAF
KPHF 190520Z 1906/2006 00000KT P6SM BKN070
     FM191300 07009KT P6SM SCT050 BKN250=



000
FTUS41 KAKQ 190500
TAFRIC
TAF
KRIC 190520Z 1906/2006 00000KT P6SM BKN060
     FM191200 05006KT P6SM BKN060
     FM200000 11004KT P6SM SCT100=



000
FTUS41 KAKQ 190100 AAA
TAFSBY
TAF AMD
KSBY 190121Z 1901/1924 VRB03KT P6SM OVC080
      TEMPO 1902/1904 -SHRA SCT020 OVC040
     FM190400 00000KT P6SM BKN100
     FM191400 08008KT P6SM SCT050 BKN100=



000
FTUS41 KAKQ 182300
TAFECG
TAF
KECG 182325Z 1900/1924 08007KT P6SM SKC
     FM190400 05004KT P6SM SCT250
     FM191400 07010KT P6SM SCT050 BKN250=



000
FTUS41 KAKQ 182300
TAFPHF
TAF
KPHF 182325Z 1900/1924 10006KT P6SM BKN080
     FM190300 09004KT P6SM OVC100
     FM191500 07009KT P6SM SCT050 BKN250=



000
FTUS41 KAKQ 182300
TAFRIC
TAF
KRIC 182325Z 1900/1924 08004KT P6SM BKN050
     FM191000 04003KT P6SM SCT050 OVC100
     FM191500 06006KT P6SM BKN050=



000
FTUS41 KAKQ 182300
TAFSBY
TAF
KSBY 182325Z 1900/1924 VRB03KT P6SM OVC060
     FM190300 00000KT P6SM BKN100
     FM191400 08008KT P6SM SCT050 BKN100=



000
FTUS41 KAKQ 182300
TAFORF
TAF
KORF 182325Z 1900/1924 10006KT P6SM SCT080
     FM190500 06004KT P6SM BKN100
     FM191500 07010KT P6SM SCT050 BKN250=



000
FTUS41 KAKQ 181900 AAA
TAFSBY
TAF AMD
KSBY 181953Z 1820/1918 15005KT P6SM BKN060 OVC080
     FM190200 00000KT P6SM SCT250
     FM191400 08008KT P6SM BKN050=



000
FTUS41 KAKQ 181700
TAFPHF
TAF
KPHF 181720Z 1818/1918 08007KT P6SM SCT040
     FM181900 09006KT P6SM BKN040
     FM190100 09004KT P6SM SCT100
     FM191400 08008KT P6SM SCT050=



000
FTUS41 KAKQ 181700
TAFRIC
TAF
KRIC 181720Z 1818/1918 13005KT P6SM BKN040 BKN080
     FM190200 08004KT P6SM BKN050
     FM191400 09007KT P6SM SCT040 BKN250=



000
FTUS41 KAKQ 181700
TAFSBY
TAF
KSBY 181720Z 1818/1918 36005KT P6SM BKN040 BKN080
     FM190200 VRB03KT P6SM SCT060
     FM191400 08008KT P6SM SCT050=



000
FTUS41 KAKQ 181700
TAFECG
TAF
KECG 181720Z 1818/1918 06009KT P6SM SCT040
     FM191400 07010KT P6SM SCT050=



000
FTUS41 KAKQ 181700
TAFORF
TAF
KORF 181720Z 1818/1918 07009KT P6SM SCT040
     FM182100 10006KT P6SM BKN040
     FM190100 08005KT P6SM SCT100
     FM191400 07008KT P6SM SCT050=



000
FTUS41 KAKQ 181100
TAFRIC
TAF
KRIC 181120Z 1812/1912 00000KT 4SM BR SCT060
     FM181300 09006KT P6SM SCT060
     FM182000 10005KT P6SM BKN040 BKN080
     FM190200 00000KT P6SM OVC040=



000
FTUS41 KAKQ 181100
TAFSBY
TAF
KSBY 181120Z 1812/1912 00000KT P6SM SCT050
     FM181300 04005KT P6SM SCT050
     FM182000 10007KT P6SM BKN060
     FM190100 00000KT P6SM SCT060=



000
FTUS41 KAKQ 181100
TAFORF
TAF
KORF 181120Z 1812/1912 05005KT P6SM SCT050
     FM181500 05007KT P6SM SCT050 BKN150
     FM190000 09004KT P6SM SCT100=



000
FTUS41 KAKQ 181100
TAFPHF
TAF
KPHF 181120Z 1812/1912 00000KT P6SM SCT050
     FM181500 06008KT P6SM SCT050 BKN150
     FM190000 10004KT P6SM SCT100=



000
FTUS41 KAKQ 181100
TAFECG
TAF
KECG 181120Z 1812/1912 01004KT P6SM SCT080
     FM181300 05010KT P6SM SCT060 SCT150=



000
FTUS41 KAKQ 181000 AAA
TAFSBY
TAF AMD
KSBY 181016Z 1810/1906 00000KT P6SM SCT050
     FM181300 07005KT P6SM SCT050 SCT250
     FM182000 13007KT P6SM BKN070=



000
FTUS41 KAKQ 180500
TAFECG
TAF
KECG 180520Z 1806/1906 03005KT P6SM BKN050
     FM181300 06010KT P6SM SCT045 BKN250=



000
FTUS41 KAKQ 180500
TAFRIC
TAF
KRIC 180520Z 1806/1906 00000KT P6SM SCT050
      TEMPO 1810/1813 4SM BR
     FM181300 11006KT P6SM SCT050 BKN250
     FM182000 10005KT P6SM BKN040 BKN080=



000
FTUS41 KAKQ 180500
TAFPHF
TAF
KPHF 180520Z 1806/1906 00000KT P6SM SCT050
     FM181500 06008KT P6SM SCT100 BKN250=



000
FTUS41 KAKQ 180500
TAFSBY
TAF
KSBY 180520Z 1806/1906 00000KT P6SM SCT050
     FM181000 00000KT 5SM BR SCT250
     FM181300 07005KT P6SM SCT050 SCT250
     FM182000 13007KT P6SM BKN070=



000
FTUS41 KAKQ 180500
TAFORF
TAF
KORF 180520Z 1806/1906 10003KT P6SM SCT050
     FM181500 05009KT P6SM SCT100 BKN250=



000
FTUS41 KAKQ 172300
TAFSBY
TAF
KSBY 172320Z 1800/1824 VRB03KT P6SM SKC
     FM180800 00000KT 5SM BR SCT250
     FM181300 07005KT P6SM SCT050 SCT250
     FM182000 13007KT P6SM BKN070=



000
FTUS41 KAKQ 172300
TAFPHF
TAF
KPHF 172320Z 1800/1824 06004KT P6SM SCT100
     FM181500 09010KT P6SM SCT100 BKN250=



000
FTUS41 KAKQ 172300
TAFRIC
TAF
KRIC 172320Z 1800/1824 VRB02KT P6SM SCT050 BKN080
     FM181300 11006KT P6SM SCT050 BKN250
     FM182000 10005KT P6SM BKN040 BKN080=



000
FTUS41 KAKQ 172300
TAFECG
TAF
KECG 172320Z 1800/1824 05008KT P6SM BKN050 BKN100
     FM180500 03005KT P6SM BKN040
     FM181300 07010KT P6SM SCT045 BKN250=



000
FTUS41 KAKQ 172300
TAFORF
TAF
KORF 172320Z 1800/1824 05006KT P6SM SCT100
     FM181500 08010KT P6SM SCT100 BKN250=



000
FTUS41 KAKQ 171700
TAFRIC
TAF
KRIC 171720Z 1718/1818 05008KT P6SM SCT050 BKN100
     FM172300 VRB04KT P6SM BKN050 BKN080=



000
FTUS41 KAKQ 171700
TAFORF
TAF
KORF 171720Z 1718/1818 VRB06KT P6SM BKN080=



000
FTUS41 KAKQ 171700
TAFECG
TAF
KECG 171720Z 1718/1818 05010KT P6SM BKN045 OVC080
     FM180800 03005KT P6SM BKN020 BKN045
     FM181300 05008KT P6SM BKN045 OVC080=



000
FTUS41 KAKQ 171700
TAFPHF
TAF
KPHF 171720Z 1718/1818 VRB06KT P6SM BKN070 BKN100=



000
FTUS41 KAKQ 171700
TAFSBY
TAF
KSBY 171720Z 1718/1818 08008KT P6SM SCT050 BKN250
     FM180800 00000KT 2SM BR SCT004 SCT050 BKN250
     FM181300 06004KT P6SM SCT050 BKN100=



000
FTUS41 KAKQ 171100
TAFSBY
TAF
KSBY 171120Z 1712/1812 04003KT P6SM SCT070
     FM171500 08008KT P6SM SCT050 SCT070
     FM180300 VRB02KT P6SM SCT050
     FM180800 00000KT 2SM BR SCT050=



000
FTUS41 KAKQ 171100
TAFPHF
TAF
KPHF 171120Z 1712/1812 02004KT P6SM BKN060
     FM171500 08007KT P6SM BKN050=



000
FTUS41 KAKQ 171100
TAFORF
TAF
KORF 171120Z 1712/1812 05006KT P6SM BKN070 OVC100
     FM171500 07008KT P6SM BKN050=



000
FTUS41 KAKQ 171100
TAFECG
TAF
KECG 171120Z 1712/1812 03009KT P6SM BKN060 OVC080
     FM171800 07009KT P6SM BKN060
     FM180800 03005KT 2SM BR BKN020=



000
FTUS41 KAKQ 171100
TAFRIC
TAF
KRIC 171120Z 1712/1812 01005KT P6SM SCT060 SCT080
     FM171600 08008KT P6SM BKN050
     FM180300 VRB03KT P6SM SCT050=



000
FTUS41 KAKQ 170500
TAFECG
TAF
KECG 170521Z 1706/1806 06004KT P6SM BKN040
     FM170700 06006KT P6SM OVC030
     FM171800 07009KT P6SM SCT030 BKN040=



000
FTUS41 KAKQ 170500
TAFPHF
TAF
KPHF 170521Z 1706/1806 06005KT P6SM BKN050 OVC070
     FM171500 08007KT P6SM BKN050=



000
FTUS41 KAKQ 170500
TAFSBY
TAF
KSBY 170521Z 1706/1806 01005KT P6SM SCT080
     FM170800 04005KT P6SM BKN050
     FM171500 08008KT P6SM SCT030 BKN050=



000
FTUS41 KAKQ 170500
TAFORF
TAF
KORF 170521Z 1706/1806 02009KT P6SM BKN050
     FM170800 05009KT P6SM OVC035
     FM171500 07010KT P6SM BKN040=



000
FTUS41 KAKQ 170500
TAFRIC
TAF
KRIC 170521Z 1706/1806 03005KT P6SM BKN060 OVC090
     FM171600 08008KT P6SM BKN050=



    US Dept of Commerce
    National Oceanic and Atmospheric Administration
    National Weather Service
    1325 East West Highway
    Silver Spring, MD 20910
    Page Author: NWS Internet Services Team
Disclaimer
Information Quality
Credits
Glossary
Privacy Policy
Freedom of Information Act (FOIA)
About Us
Career Opportunities